Time;durP1;ratioP1;P1;durP2;ratioP2;P2;SDS_P1;SDS_P2;PMS_P1;PMS_P2;Temp;Humidity;BMP_temperature;BMP_pressure;BME280_temperature;BME280_humidity;BME280_pressure;Samples;Min_cycle;Max_cycle;Signal;HPM_P1;HPM_P2
2021/09/26 00:00:08;;;;;;;;;;;;;;;17.08;68.79;99702.81;5036835;28;19979;-68
2021/09/26 00:02:52;;;;;;;;;;;;;;;17.09;68.61;99711.50;5037158;28;19975;-70
2021/09/26 00:05:36;;;;;;;;;;;;;;;17.09;68.74;99701.03;5037101;28;20020;-69
2021/09/26 00:08:20;;;;;;;;;;;;;;;17.10;68.54;99710.63;5036967;28;19967;-69
2021/09/26 00:11:06;;;;;;;;;;;;;;;17.10;68.92;99714.13;5036142;28;19970;-67
2021/09/26 00:13:51;;;;;;;;;;;;;;;17.11;68.80;99705.38;5036852;28;19928;-67
2021/09/26 00:16:35;;;;;;;;;;;;;;;17.12;68.93;99703.63;5037265;28;20549;-67
2021/09/26 00:19:19;;;;;;;;;;;;;;;17.12;68.75;99707.13;5049794;28;19974;-67
2021/09/26 00:22:03;;;;;;;;;;;;;;;17.12;68.96;99707.13;5036985;28;19928;-67
2021/09/26 00:24:47;;;;;;;;;;;;;;;17.14;68.81;99704.47;5035983;28;19971;-68
2021/09/26 00:27:31;;;;;;;;;;;;;;;17.14;68.90;99705.31;5036826;28;19931;-67
2021/09/26 00:30:15;;;;;;;;;;;;;;;17.13;68.72;99703.56;5036185;28;20316;-68
2021/09/26 00:32:59;;;;;;;;;;;;;;;17.15;68.97;99703.56;5035931;28;19928;-68
2021/09/26 00:35:43;;;;;;;;;;;;;;;17.15;68.83;99698.34;5037097;28;20327;-67
2021/09/26 00:38:28;;;;;;;;;;;;;;;17.13;69.08;99690.50;5036689;28;20043;-67
2021/09/26 00:41:11;;;;;;;;;;;;;;;17.15;68.91;99698.34;5036677;28;19928;-67
2021/09/26 00:43:55;;;;;;;;;;;;;;;17.15;68.94;99693.94;5049336;28;20430;-67
2021/09/26 00:46:39;;;;;;;;;;;;;;;17.15;68.93;99691.34;5035963;28;19928;-67
2021/09/26 00:49:23;;;;;;;;;;;;;;;17.15;69.02;99693.09;5035777;28;20423;-68
2021/09/26 00:52:07;;;;;;;;;;;;;;;17.16;69.08;99694.84;5036587;28;19929;-68
2021/09/26 00:54:51;;;;;;;;;;;;;;;17.16;69.08;99690.44;5036603;28;19928;-69
2021/09/26 00:57:35;;;;;;;;;;;;;;;17.16;69.08;99693.06;5034905;28;20407;-69
2021/09/26 01:00:20;;;;;;;;;;;;;;;17.16;69.04;99686.97;5036768;28;20019;-69
2021/09/26 01:03:04;;;;;;;;;;;;;;;17.15;69.17;99688.72;5035019;28;19927;-69
2021/09/26 01:05:51;;;;;;;;;;;;;;;17.16;69.29;99682.59;5036328;28;20048;-69
2021/09/26 01:08:42;;;;;;;;;;;;;;;17.16;69.16;99687.81;5036200;28;20024;-69
2021/09/26 01:11:39;;;;;;;;;;;;;;;17.16;69.38;99689.59;5035106;28;20027;-69
2021/09/26 01:14:24;;;;;;;;;;;;;;;17.16;69.22;99687.81;5036342;28;19967;-69
2021/09/26 01:17:19;;;;;;;;;;;;;;;17.17;69.28;99688.72;5035512;28;20022;-68
2021/09/26 01:20:15;;;;;;;;;;;;;;;17.16;69.38;99681.75;5036343;28;20032;-67
2021/09/26 01:23:05;;;;;;;;;;;;;;;17.17;69.28;99683.47;5036170;28;19975;-68
2021/09/26 01:26:01;;;;;;;;;;;;;;;17.18;69.22;99685.19;5036181;28;19983;-69
2021/09/26 01:28:58;;;;;;;;;;;;;;;17.16;69.38;99679.97;5034675;28;20399;-68
2021/09/26 01:31:47;;;;;;;;;;;;;;;17.17;69.45;99673.84;5034911;28;20378;-68
2021/09/26 01:34:48;;;;;;;;;;;;;;;17.18;69.43;99675.56;5035343;28;19932;-67
2021/09/26 01:37:40;;;;;;;;;;;;;;;17.19;69.40;99681.69;5035095;28;19928;-68
2021/09/26 01:40:32;;;;;;;;;;;;;;;17.18;69.48;99670.34;5034534;28;20343;-68
2021/09/26 01:43:18;;;;;;;;;;;;;;;17.20;69.38;99672.94;5034335;28;20358;-68
2021/09/26 01:46:05;;;;;;;;;;;;;;;17.20;69.43;99678.19;5035654;28;20331;-67
2021/09/26 01:48:57;;;;;;;;;;;;;;;17.22;69.60;99684.22;5035492;28;19928;-67
2021/09/26 01:51:45;;;;;;;;;;;;;;;17.23;69.54;99690.34;5034266;28;19978;-67
2021/09/26 01:54:29;;;;;;;;;;;;;;;17.23;69.83;99695.59;5034346;28;19964;-67
2021/09/26 01:57:15;;;;;;;;;;;;;;;17.24;69.58;99690.31;5034866;28;19963;-67
2021/09/26 02:00:01;;;;;;;;;;;;;;;17.25;69.69;99686.81;5034034;28;19928;-67
2021/09/26 02:02:48;;;;;;;;;;;;;;;17.25;69.71;99692.03;5035115;28;20426;-69
2021/09/26 02:05:32;;;;;;;;;;;;;;;17.25;69.71;99689.44;5034168;28;19932;-69
2021/09/26 02:08:17;;;;;;;;;;;;;;;17.26;69.84;99688.53;5034936;28;19975;-66
2021/09/26 02:11:01;;;;;;;;;;;;;;;17.28;69.63;99693.75;5034402;28;19997;-67
2021/09/26 02:13:49;;;;;;;;;;;;;;;17.29;69.65;99692.84;5034571;28;19983;-68
2021/09/26 02:16:34;;;;;;;;;;;;;;;17.29;69.74;99692.84;5033754;28;19927;-68
2021/09/26 02:19:19;;;;;;;;;;;;;;;17.29;69.73;99690.22;5033688;28;19967;-67
2021/09/26 02:22:07;;;;;;;;;;;;;;;17.29;70.08;99698.97;5034504;28;19929;-68
2021/09/26 02:24:54;;;;;;;;;;;;;;;17.29;69.94;99696.34;5034785;28;20062;-67
2021/09/26 02:27:40;;;;;;;;;;;;;;;17.30;70.03;99705.06;5033953;28;19928;-69
2021/09/26 02:30:27;;;;;;;;;;;;;;;17.31;69.96;99706.78;5034665;28;20020;-70
2021/09/26 02:33:12;;;;;;;;;;;;;;;17.31;70.13;99704.16;5033328;28;19975;-67
2021/09/26 02:35:55;;;;;;;;;;;;;;;17.30;70.19;99698.06;5033819;28;19955;-67
2021/09/26 02:38:42;;;;;;;;;;;;;;;17.30;70.16;99697.19;5047725;28;19979;-68
2021/09/26 02:41:39;;;;;;;;;;;;;;;17.31;70.16;99697.19;5033543;28;20030;-68
2021/09/26 02:44:38;;;;;;;;;;;;;;;17.32;70.15;99701.53;5033855;28;19929;-68
2021/09/26 02:47:24;;;;;;;;;;;;;;;17.32;70.36;99704.16;5033621;28;19967;-69
2021/09/26 02:50:10;;;;;;;;;;;;;;;17.31;70.30;99705.03;5033924;28;19928;-68
2021/09/26 02:52:57;;;;;;;;;;;;;;;17.31;70.39;99698.94;5033816;28;19928;-67
2021/09/26 02:55:43;;;;;;;;;;;;;;;17.31;70.25;99699.81;5033212;28;19963;-67
2021/09/26 02:58:27;;;;;;;;;;;;;;;17.34;70.67;99701.50;5033777;28;19928;-68
2021/09/26 03:01:11;;;;;;;;;;;;;;;17.34;70.39;99706.72;5033944;28;20442;-69
2021/09/26 03:04:02;;;;;;;;;;;;;;;17.34;70.61;99697.13;5033879;28;19975;-69
2021/09/26 03:06:46;;;;;;;;;;;;;;;17.35;70.62;99698.00;5032926;28;20415;-69
2021/09/26 03:09:33;;;;;;;;;;;;;;;17.34;70.77;99698.88;5034098;28;20347;-69
2021/09/26 03:12:19;;;;;;;;;;;;;;;17.34;70.63;99705.00;5033052;28;19943;-70
2021/09/26 03:15:03;;;;;;;;;;;;;;;17.36;70.76;99704.97;5033797;28;20434;-69
2021/09/26 03:17:47;;;;;;;;;;;;;;;17.36;70.83;99702.34;5034002;28;19927;-70
2021/09/26 03:20:31;;;;;;;;;;;;;;;17.35;70.92;99700.59;5033516;28;19932;-69
2021/09/26 03:23:15;;;;;;;;;;;;;;;17.35;70.73;99698.88;5033955;28;19932;-70
2021/09/26 03:25:59;;;;;;;;;;;;;;;17.37;70.96;99697.94;5033920;28;20002;-69
2021/09/26 03:28:46;;;;;;;;;;;;;;;17.37;71.23;99700.56;5047334;28;19928;-69
2021/09/26 03:31:30;;;;;;;;;;;;;;;17.37;71.15;99696.22;5033865;28;20434;-69
2021/09/26 03:34:14;;;;;;;;;;;;;;;17.39;71.21;99690.94;5033765;28;20415;-69
2021/09/26 03:36:58;;;;;;;;;;;;;;;17.37;71.18;99690.97;5033588;28;19927;-69
2021/09/26 03:39:42;;;;;;;;;;;;;;;17.37;71.33;99690.97;5034011;28;20411;-69
2021/09/26 03:42:26;;;;;;;;;;;;;;;17.37;71.13;99696.22;5033605;28;19935;-69
2021/09/26 03:45:14;;;;;;;;;;;;;;;17.37;71.52;99704.06;5033071;28;19927;-69
2021/09/26 03:47:58;;;;;;;;;;;;;;;17.36;71.44;99691.88;5032682;28;19971;-69
2021/09/26 03:50:42;;;;;;;;;;;;;;;17.38;71.58;99681.34;5033921;28;20391;-69
2021/09/26 03:53:26;;;;;;;;;;;;;;;17.38;71.58;99681.34;5032746;28;20470;-69
2021/09/26 03:56:10;;;;;;;;;;;;;;;17.35;71.40;99687.50;5033360;28;19967;-69
2021/09/26 03:58:53;;;;;;;;;;;;;;;17.35;71.71;99679.66;5033111;28;20343;-68
2021/09/26 04:01:38;;;;;;;;;;;;;;;17.36;71.55;99689.25;5033374;28;19928;-69
2021/09/26 04:04:22;;;;;;;;;;;;;;;17.37;71.67;99693.59;5033667;28;19928;-67
2021/09/26 04:07:06;;;;;;;;;;;;;;;17.39;71.74;99686.56;5033165;28;19947;-68
2021/09/26 04:09:50;;;;;;;;;;;;;;;17.40;72.00;99690.03;5033474;28;19932;-68
2021/09/26 04:12:34;;;;;;;;;;;;;;;17.41;71.73;99681.28;5033166;28;19968;-68
2021/09/26 04:15:19;;;;;;;;;;;;;;;17.41;71.78;99683.91;5033382;28;19944;-67
2021/09/26 04:18:03;;;;;;;;;;;;;;;17.42;72.09;99688.25;5032740;28;20506;-68
2021/09/26 04:20:46;;;;;;;;;;;;;;;17.41;72.00;99676.06;5033778;28;19928;-68
2021/09/26 04:23:30;;;;;;;;;;;;;;;17.40;71.99;99680.44;5032943;28;19960;-69
2021/09/26 04:26:15;;;;;;;;;;;;;;;17.41;72.34;99682.19;5033416;28;19944;-67
2021/09/26 04:29:02;;;;;;;;;;;;;;;17.41;72.15;99681.28;5032558;28;19971;-67
2021/09/26 04:31:46;;;;;;;;;;;;;;;17.39;72.42;99683.97;5034424;28;19932;-67
2021/09/26 04:34:30;;;;;;;;;;;;;;;17.38;72.39;99681.34;5035877;28;19964;-67
2021/09/26 04:37:14;;;;;;;;;;;;;;;17.37;72.40;99677.88;5036747;28;20010;-67
2021/09/26 04:39:57;;;;;;;;;;;;;;;17.37;72.32;99679.63;5035719;28;19928;-68
2021/09/26 04:42:41;;;;;;;;;;;;;;;17.34;72.53;99676.19;5035659;28;19968;-67
2021/09/26 04:45:25;;;;;;;;;;;;;;;17.34;72.42;99676.19;5036643;28;19934;-69
2021/09/26 04:48:10;;;;;;;;;;;;;;;17.33;72.58;99684.06;5036741;28;19943;-68
2021/09/26 04:50:53;;;;;;;;;;;;;;;17.32;72.58;99691.06;5036475;28;19944;-68
2021/09/26 04:53:37;;;;;;;;;;;;;;;17.32;72.64;99691.06;5036425;28;19929;-68
2021/09/26 04:56:21;;;;;;;;;;;;;;;17.31;72.63;99676.25;5036361;28;19927;-68
2021/09/26 04:59:10;;;;;;;;;;;;;;;17.29;72.94;99680.63;5035970;28;20498;-68
2021/09/26 05:01:54;;;;;;;;;;;;;;;17.28;72.90;99684.13;5034990;28;19928;-68
2021/09/26 05:04:38;;;;;;;;;;;;;;;17.28;72.88;99686.75;5036085;28;20012;-67
2021/09/26 05:07:22;;;;;;;;;;;;;;;17.28;72.91;99686.75;5036214;28;20437;-67
2021/09/26 05:10:06;;;;;;;;;;;;;;;17.28;73.14;99696.38;5035592;28;19971;-68
2021/09/26 05:12:50;;;;;;;;;;;;;;;17.27;72.94;99703.38;5035835;28;20403;-68
2021/09/26 05:15:34;;;;;;;;;;;;;;;17.26;73.09;99701.63;5035929;28;19927;-68
2021/09/26 05:18:18;;;;;;;;;;;;;;;17.24;73.36;99703.41;5035922;28;19998;-67
2021/09/26 05:21:01;;;;;;;;;;;;;;;17.24;73.16;99702.56;5035574;28;19928;-69
2021/09/26 05:23:47;;;;;;;;;;;;;;;17.23;73.18;99693.81;5035514;28;19928;-68
2021/09/26 05:26:32;;;;;;;;;;;;;;;17.22;73.21;99699.94;5035345;28;19974;-69
2021/09/26 05:29:16;;;;;;;;;;;;;;;17.20;73.44;99705.22;5035824;28;20376;-67
2021/09/26 05:32:00;;;;;;;;;;;;;;;17.19;73.47;99705.25;5036231;28;19928;-68
2021/09/26 05:34:44;;;;;;;;;;;;;;;17.18;73.73;99701.75;5036185;28;19928;-68
2021/09/26 05:37:28;;;;;;;;;;;;;;;17.17;73.52;99717.50;5035574;28;19983;-67
2021/09/26 05:40:12;;;;;;;;;;;;;;;17.17;73.58;99714.88;5035413;28;19928;-69
2021/09/26 05:42:56;;;;;;;;;;;;;;;17.16;73.68;99715.78;5035237;28;19932;-69
2021/09/26 05:45:40;;;;;;;;;;;;;;;17.16;73.62;99715.78;5035878;28;20281;-69
2021/09/26 05:48:24;;;;;;;;;;;;;;;17.15;73.60;99716.66;5035868;28;20301;-69
2021/09/26 05:51:08;;;;;;;;;;;;;;;17.13;73.63;99715.81;5035830;28;19944;-69
2021/09/26 05:53:52;;;;;;;;;;;;;;;17.13;73.91;99710.59;5033992;28;19947;-69
2021/09/26 05:56:36;;;;;;;;;;;;;;;17.14;73.89;99709.69;5035396;28;19932;-69
2021/09/26 05:59:23;;;;;;;;;;;;;;;17.16;73.77;99723.63;5035174;28;19968;-68
2021/09/26 06:02:08;;;;;;;;;;;;;;;17.14;74.02;99715.78;5034934;28;19928;-68
2021/09/26 06:04:52;;;;;;;;;;;;;;;17.14;74.03;99714.94;5035294;28;20075;-68
2021/09/26 06:07:36;;;;;;;;;;;;;;;17.14;73.77;99714.94;5034219;28;19932;-68
2021/09/26 06:10:19;;;;;;;;;;;;;;;17.11;73.95;99715.84;5035047;28;19928;-69
2021/09/26 06:13:03;;;;;;;;;;;;;;;17.12;74.04;99719.31;5035008;28;19928;-68
2021/09/26 06:15:47;;;;;;;;;;;;;;;17.12;74.06;99728.06;5035060;28;19928;-68
2021/09/26 06:18:34;;;;;;;;;;;;;;;17.13;73.99;99728.91;5035346;28;20418;-68
2021/09/26 06:21:18;;;;;;;;;;;;;;;17.12;74.15;99738.53;5034169;28;20446;-68
2021/09/26 06:24:02;;;;;;;;;;;;;;;17.12;74.14;99738.53;5034733;28;19928;-68
2021/09/26 06:26:46;;;;;;;;;;;;;;;17.12;73.97;99732.41;5033912;28;19932;-68
2021/09/26 06:29:29;;;;;;;;;;;;;;;17.13;74.28;99735.00;5035265;28;19975;-68
2021/09/26 06:32:14;;;;;;;;;;;;;;;17.13;74.26;99742.00;5034606;28;20288;-70
2021/09/26 06:35:01;;;;;;;;;;;;;;;17.13;74.37;99747.25;5034769;28;19927;-69
2021/09/26 06:37:45;;;;;;;;;;;;;;;17.14;74.24;99747.19;5033171;28;20016;-69
2021/09/26 06:40:30;;;;;;;;;;;;;;;17.14;74.43;99757.69;5033925;28;19974;-69
2021/09/26 06:43:14;;;;;;;;;;;;;;;17.13;74.32;99771.66;5033728;28;19928;-70
2021/09/26 06:45:58;;;;;;;;;;;;;;;17.16;74.58;99757.66;5034721;28;19928;-69
2021/09/26 06:48:44;;;;;;;;;;;;;;;17.16;74.47;99760.28;5034829;28;19979;-69
2021/09/26 06:51:28;;;;;;;;;;;;;;;17.17;74.46;99756.78;5033724;28;19991;-69
2021/09/26 06:54:12;;;;;;;;;;;;;;;17.17;74.61;99754.16;5033607;28;20015;-68
2021/09/26 06:56:56;;;;;;;;;;;;;;;17.16;74.60;99758.53;5034321;28;19971;-68
2021/09/26 06:59:40;;;;;;;;;;;;;;;17.17;74.65;99755.00;5033363;28;19928;-68
2021/09/26 07:02:24;;;;;;;;;;;;;;;17.18;74.33;99748.03;5033878;28;19971;-68
2021/09/26 07:05:08;;;;;;;;;;;;;;;17.19;74.67;99747.16;5033671;28;19928;-68
2021/09/26 07:07:52;;;;;;;;;;;;;;;17.18;74.44;99748.88;5034141;28;20292;-69
2021/09/26 07:10:36;;;;;;;;;;;;;;;17.18;74.49;99754.13;5034448;28;19932;-70
2021/09/26 07:13:20;;;;;;;;;;;;;;;17.20;74.44;99762.81;5033971;28;19967;-68
2021/09/26 07:16:06;;;;;;;;;;;;;;;17.22;74.63;99767.19;5033669;28;20381;-69
2021/09/26 07:18:51;;;;;;;;;;;;;;;17.21;74.50;99779.38;5033800;28;19928;-71
2021/09/26 07:21:36;;;;;;;;;;;;;;;17.22;74.61;99770.66;5033273;28;19932;-71
2021/09/26 07:24:19;;;;;;;;;;;;;;;17.24;74.71;99770.66;5033599;28;19967;-70
2021/09/26 07:27:03;;;;;;;;;;;;;;;17.25;74.55;99775.00;5033997;28;19928;-70
2021/09/26 07:29:47;;;;;;;;;;;;;;;17.26;74.60;99776.72;5033657;28;19928;-68
2021/09/26 07:32:31;;;;;;;;;;;;;;;17.26;74.46;99771.50;5033615;28;19932;-68
2021/09/26 07:35:16;;;;;;;;;;;;;;;17.28;74.72;99780.19;5034024;28;19928;-69
2021/09/26 07:38:02;;;;;;;;;;;;;;;17.28;74.71;99774.94;5033695;28;20014;-68
2021/09/26 07:40:46;;;;;;;;;;;;;;;17.29;74.50;99776.66;5034011;28;19956;-68
2021/09/26 07:43:30;;;;;;;;;;;;;;;17.31;74.52;99783.63;5033625;28;19967;-69
2021/09/26 07:46:14;;;;;;;;;;;;;;;17.31;74.56;99778.38;5033620;28;20023;-70
2021/09/26 07:48:58;;;;;;;;;;;;;;;17.32;74.86;99797.56;5033054;28;19928;-68
2021/09/26 07:51:42;;;;;;;;;;;;;;;17.34;74.50;99806.25;5033588;28;19927;-68
2021/09/26 07:54:31;;;;;;;;;;;;;;;17.35;74.56;99802.75;5033557;28;19983;-69
2021/09/26 07:57:16;;;;;;;;;;;;;;;17.35;74.64;99794.91;5032906;28;19935;-70
2021/09/26 08:00:02;;;;;;;;;;;;;;;17.35;74.55;99803.63;5033576;28;20018;-69
2021/09/26 08:02:49;;;;;;;;;;;;;;;17.38;74.76;99809.69;5033301;28;19979;-70
2021/09/26 08:05:33;;;;;;;;;;;;;;;17.39;74.53;99811.41;5033450;28;19928;-70
2021/09/26 08:08:17;;;;;;;;;;;;;;;17.40;74.51;99802.69;5037091;28;19928;-69
2021/09/26 08:11:02;;;;;;;;;;;;;;;17.41;74.83;99809.66;5037173;28;19947;-69
2021/09/26 08:13:46;;;;;;;;;;;;;;;17.43;74.56;99803.50;5036876;28;20028;-70
2021/09/26 08:16:31;;;;;;;;;;;;;;;17.45;74.46;99806.94;5036628;28;19975;-70
2021/09/26 08:19:15;;;;;;;;;;;;;;;17.46;74.73;99805.22;5037305;28;19927;-70
2021/09/26 08:21:59;;;;;;;;;;;;;;;17.48;74.50;99808.69;5037403;28;19983;-70
2021/09/26 08:24:43;;;;;;;;;;;;;;;17.50;74.80;99813.00;5036630;28;19927;-70
2021/09/26 08:27:28;;;;;;;;;;;;;;;17.53;74.63;99822.53;5037101;28;20331;-70
2021/09/26 08:30:12;;;;;;;;;;;;;;;17.55;74.36;99826.00;5049835;28;20458;-70
2021/09/26 08:32:56;;;;;;;;;;;;;;;17.57;74.55;99829.47;5036899;28;19956;-69
2021/09/26 08:35:40;;;;;;;;;;;;;;;17.59;74.47;99839.94;5037108;28;19975;-67
2021/09/26 08:38:24;;;;;;;;;;;;;;;17.61;74.46;99843.38;5037143;28;19927;-69
2021/09/26 08:41:08;;;;;;;;;;;;;;;17.62;74.47;99827.66;5036831;28;20394;-68
2021/09/26 08:43:53;;;;;;;;;;;;;;;17.65;74.51;99827.59;5035757;28;19983;-68
2021/09/26 08:46:39;;;;;;;;;;;;;;;17.68;74.32;99829.31;5035886;28;20018;-69
2021/09/26 08:49:24;;;;;;;;;;;;;;;17.70;74.46;99830.16;5036016;28;20384;-69
2021/09/26 08:52:08;;;;;;;;;;;;;;;17.73;74.24;99839.69;5035875;28;19928;-69
2021/09/26 08:54:52;;;;;;;;;;;;;;;17.78;74.23;99850.97;5035523;28;19928;-68
2021/09/26 08:57:36;;;;;;;;;;;;;;;17.81;74.23;99840.44;5036867;28;20344;-69
2021/09/26 09:00:25;;;;;;;;;;;;;;;17.83;74.27;99843.88;5036878;28;19928;-62
2021/09/26 09:03:10;;;;;;;;;;;;;;;17.82;74.14;99839.56;5049516;28;19967;-62
2021/09/26 09:05:57;;;;;;;;;;;;;;;17.80;74.15;99852.69;5035257;28;19928;-62
2021/09/26 09:08:43;;;;;;;;;;;;;;;17.78;74.20;99853.59;5035918;28;19929;-62
2021/09/26 09:11:27;;;;;;;;;;;;;;;17.77;74.34;99857.13;5035204;28;19932;-62
2021/09/26 09:14:11;;;;;;;;;;;;;;;17.76;74.08;99858.00;5035798;28;19928;-62
2021/09/26 09:16:56;;;;;;;;;;;;;;;17.76;74.14;99869.34;5034575;28;20439;-62
2021/09/26 09:19:39;;;;;;;;;;;;;;;17.76;74.31;99856.22;5036255;28;19928;-62
2021/09/26 09:22:28;;;;;;;;;;;;;;;17.77;74.17;99857.97;5035576;28;20013;-62
2021/09/26 09:25:29;;;;;;;;;;;;;;;17.78;74.29;99861.47;5035850;28;20344;-62
2021/09/26 09:28:15;;;;;;;;;;;;;;;17.79;74.09;99868.44;5035920;28;19974;-62
2021/09/26 09:31:04;;;;;;;;;;;;;;;17.79;74.18;99864.03;5035200;28;19928;-61
2021/09/26 09:33:48;;;;;;;;;;;;;;;17.80;74.25;99865.78;5035752;28;19928;-62
2021/09/26 09:36:32;;;;;;;;;;;;;;;17.80;74.30;99870.16;5035468;28;20308;-63
2021/09/26 09:39:16;;;;;;;;;;;;;;;17.79;74.25;99866.66;5036113;28;19967;-62
2021/09/26 09:42:01;;;;;;;;;;;;;;;17.79;74.13;99863.19;5036016;28;19928;-62
2021/09/26 09:44:46;;;;;;;;;;;;;;;17.78;74.14;99882.44;5035847;28;19928;-62
2021/09/26 09:47:30;;;;;;;;;;;;;;;17.77;74.33;99878.09;5035661;28;20322;-62
2021/09/26 09:50:17;;;;;;;;;;;;;;;17.75;74.29;99879.84;5034861;28;20296;-62
2021/09/26 09:53:01;;;;;;;;;;;;;;;17.75;74.26;99879.84;5035308;28;19991;-62
2021/09/26 09:55:45;;;;;;;;;;;;;;;17.74;74.35;99879.00;5035275;28;19927;-61
2021/09/26 09:58:37;;;;;;;;;;;;;;;17.75;74.26;99890.34;5033881;28;19975;-64
2021/09/26 10:01:32;;;;;;;;;;;;;;;17.74;74.20;99891.22;5034226;28;20406;-64
2021/09/26 10:04:21;;;;;;;;;;;;;;;17.74;74.24;99880.75;5034248;28;20010;-64
2021/09/26 10:07:19;;;;;;;;;;;;;;;17.74;74.17;99879.00;5034524;28;19927;-63
2021/09/26 10:10:14;;;;;;;;;;;;;;;17.75;74.30;99877.22;5034388;28;20034;-63
2021/09/26 10:13:13;;;;;;;;;;;;;;;17.76;74.06;99881.59;5034799;28;20399;-63
2021/09/26 10:15:57;;;;;;;;;;;;;;;17.75;74.14;99895.59;5035219;28;20468;-62
2021/09/26 10:18:44;;;;;;;;;;;;;;;17.75;74.28;99895.59;5035355;28;19927;-61
2021/09/26 10:21:29;;;;;;;;;;;;;;;17.75;74.14;99903.44;5034190;28;19928;-61
2021/09/26 10:24:14;;;;;;;;;;;;;;;17.74;74.18;99899.09;5033912;28;20450;-62
2021/09/26 10:27:01;;;;;;;;;;;;;;;17.74;74.21;99901.72;5034596;28;19975;-62
2021/09/26 10:29:45;;;;;;;;;;;;;;;17.73;74.17;99905.22;5032957;28;19927;-61
2021/09/26 10:32:29;;;;;;;;;;;;;;;17.73;74.33;99897.34;5033797;28;19967;-62
2021/09/26 10:35:13;;;;;;;;;;;;;;;17.74;74.42;99899.97;5034207;28;19928;-62
2021/09/26 10:37:57;;;;;;;;;;;;;;;17.73;74.36;99907.84;5034689;28;19944;-62
2021/09/26 10:40:40;;;;;;;;;;;;;;;17.72;74.36;99904.38;5034639;28;19944;-63
2021/09/26 10:43:27;;;;;;;;;;;;;;;17.72;74.34;99913.97;5033763;28;19928;-63
2021/09/26 10:46:17;;;;;;;;;;;;;;;17.73;74.44;99918.31;5033074;28;19944;-63
2021/09/26 10:49:05;;;;;;;;;;;;;;;17.72;74.26;99912.22;5033717;28;19928;-63
2021/09/26 10:51:49;;;;;;;;;;;;;;;17.73;74.44;99905.22;5033380;28;19971;-63
2021/09/26 10:54:36;;;;;;;;;;;;;;;17.73;74.30;99916.59;5033877;28;19928;-63
2021/09/26 10:57:25;;;;;;;;;;;;;;;17.73;74.26;99916.59;5033095;28;19932;-63
2021/09/26 11:00:10;;;;;;;;;;;;;;;17.72;74.36;99912.22;5033486;28;20383;-63
2021/09/26 11:02:56;;;;;;;;;;;;;;;17.73;74.54;99906.09;5033195;28;19971;-63
2021/09/26 11:05:44;;;;;;;;;;;;;;;17.73;74.35;99908.72;5033923;28;19956;-63
2021/09/26 11:08:28;;;;;;;;;;;;;;;17.74;74.39;99914.81;5033966;28;19971;-63
2021/09/26 11:11:29;;;;;;;;;;;;;;;17.74;74.52;99914.81;5033928;28;20300;-62
2021/09/26 11:14:15;;;;;;;;;;;;;;;17.73;74.44;99913.09;5034037;28;19928;-62
2021/09/26 11:17:03;;;;;;;;;;;;;;;17.73;74.61;99902.59;5033583;28;19967;-62
2021/09/26 11:19:51;;;;;;;;;;;;;;;17.72;74.54;99903.47;5034260;28;19928;-61
2021/09/26 11:22:35;;;;;;;;;;;;;;;17.72;74.50;99896.50;5034009;28;20450;-61
2021/09/26 11:25:19;;;;;;;;;;;;;;;17.73;74.40;99906.09;5047531;28;20387;-63
2021/09/26 11:28:21;;;;;;;;;;;;;;;17.72;74.71;99906.09;5033838;28;20395;-63
2021/09/26 11:31:08;;;;;;;;;;;;;;;17.72;74.60;99900.88;5034254;28;19927;-62
2021/09/26 11:33:57;;;;;;;;;;;;;;;17.72;74.67;99900.88;5032817;28;19927;-64
2021/09/26 11:36:51;;;;;;;;;;;;;;;17.72;74.65;99899.13;5033145;28;19964;-64
2021/09/26 11:39:38;;;;;;;;;;;;;;;17.73;74.61;99910.47;5032613;28;20419;-62
2021/09/26 11:42:28;;;;;;;;;;;;;;;17.72;74.95;99903.47;5036635;28;19928;-64
2021/09/26 11:45:19;;;;;;;;;;;;;;;17.72;74.76;99906.09;5037824;28;19936;-64
2021/09/26 11:48:08;;;;;;;;;;;;;;;17.72;74.71;99908.72;5037186;28;19928;-62
2021/09/26 11:50:57;;;;;;;;;;;;;;;17.72;74.69;99906.09;5037177;28;19975;-63
2021/09/26 11:53:42;;;;;;;;;;;;;;;17.73;74.92;99895.63;5037315;28;19936;-63
2021/09/26 11:56:27;;;;;;;;;;;;;;;17.72;74.84;99895.63;5036669;28;19927;-63
2021/09/26 11:59:15;;;;;;;;;;;;;;;17.72;74.90;99879.91;5037727;28;19927;-63
2021/09/26 12:02:12;;;;;;;;;;;;;;;17.73;74.79;99879.91;5036533;28;20008;-63
2021/09/26 12:04:56;;;;;;;;;;;;;;;17.71;75.03;99876.44;5037391;28;20035;-63
2021/09/26 12:07:40;;;;;;;;;;;;;;;17.72;74.88;99879.91;5037360;28;19928;-63
2021/09/26 12:10:23;;;;;;;;;;;;;;;17.72;75.18;99872.03;5036697;28;20327;-63
2021/09/26 12:13:10;;;;;;;;;;;;;;;17.73;74.92;99856.31;5036535;28;19929;-63
2021/09/26 12:15:54;;;;;;;;;;;;;;;17.74;74.94;99868.53;5036399;28;19929;-63
2021/09/26 12:18:38;;;;;;;;;;;;;;;17.75;74.86;99858.88;5037561;28;19927;-63
2021/09/26 12:21:26;;;;;;;;;;;;;;;17.75;74.94;99869.38;5037103;28;19928;-63
2021/09/26 12:24:14;;;;;;;;;;;;;;;17.75;74.95;99864.13;5036700;28;19971;-64
2021/09/26 12:27:00;;;;;;;;;;;;;;;17.75;75.05;99859.75;5036613;28;19928;-63
2021/09/26 12:29:49;;;;;;;;;;;;;;;17.76;74.96;99858.00;5036595;28;19936;-63
2021/09/26 12:32:39;;;;;;;;;;;;;;;17.76;74.94;99861.47;5036811;28;19974;-64
2021/09/26 12:35:35;;;;;;;;;;;;;;;17.76;75.29;99858.00;5036264;28;19928;-64
2021/09/26 12:38:27;;;;;;;;;;;;;;;17.77;74.89;99857.97;5035862;28;20422;-63
2021/09/26 12:41:20;;;;;;;;;;;;;;;17.77;75.14;99857.13;5035788;28;19928;-63
2021/09/26 12:44:06;;;;;;;;;;;;;;;17.78;74.92;99858.84;5036935;28;19929;-63
2021/09/26 12:46:56;;;;;;;;;;;;;;;17.79;75.09;99865.81;5036424;28;19927;-63
2021/09/26 12:49:44;;;;;;;;;;;;;;;17.79;74.97;99860.56;5035676;28;20005;-63
2021/09/26 12:52:29;;;;;;;;;;;;;;;17.79;74.87;99878.94;5034581;28;19944;-63
2021/09/26 12:55:18;;;;;;;;;;;;;;;17.79;74.95;99866.66;5036989;28;19927;-62
2021/09/26 12:58:03;;;;;;;;;;;;;;;17.78;75.18;99864.94;5035623;28;19928;-62
2021/09/26 13:00:48;;;;;;;;;;;;;;;17.79;75.04;99865.81;5036523;28;20355;-61
2021/09/26 13:03:32;;;;;;;;;;;;;;;17.80;75.07;99870.16;5036364;28;19978;-61
2021/09/26 13:06:24;;;;;;;;;;;;;;;17.80;75.32;99878.03;5036340;28;19936;-61
2021/09/26 13:09:17;;;;;;;;;;;;;;;17.81;75.21;99870.13;5036070;28;19974;-62
2021/09/26 13:12:22;;;;;;;;;;;;;;;17.82;75.28;99881.50;5035225;28;19975;-62
2021/09/26 13:15:09;;;;;;;;;;;;;;;17.83;75.05;99867.47;5035501;28;19991;-61
2021/09/26 13:18:11;;;;;;;;;;;;;;;17.85;75.16;99868.31;5036073;28;19927;-62
2021/09/26 13:21:17;;;;;;;;;;;;;;;17.86;75.18;99888.41;5036127;28;20054;-62
2021/09/26 13:24:08;;;;;;;;;;;;;;;17.86;75.16;99880.53;5034989;28;19928;-62
2021/09/26 13:26:52;;;;;;;;;;;;;;;17.88;75.13;99885.78;5034815;28;19971;-62
2021/09/26 13:29:37;;;;;;;;;;;;;;;17.89;75.30;99871.78;5035881;28;20418;-63
2021/09/26 13:32:30;;;;;;;;;;;;;;;17.90;75.25;99874.34;5035987;28;19936;-63
2021/09/26 13:35:27;;;;;;;;;;;;;;;17.92;75.30;99872.59;5035094;28;19928;-64
2021/09/26 13:38:18;;;;;;;;;;;;;;;17.94;75.06;99875.16;5035098;28;19979;-63
2021/09/26 13:41:06;;;;;;;;;;;;;;;17.95;75.34;99874.28;5034815;28;19928;-62
2021/09/26 13:44:06;;;;;;;;;;;;;;;17.96;75.33;99868.13;5035970;28;19983;-62
2021/09/26 13:46:54;;;;;;;;;;;;;;;17.96;75.13;99869.03;5034817;28;19928;-64
2021/09/26 13:49:38;;;;;;;;;;;;;;;17.98;75.17;99881.28;5034679;28;19928;-63
2021/09/26 13:52:22;;;;;;;;;;;;;;;17.97;75.15;99869.88;5034846;28;19936;-63
2021/09/26 13:55:07;;;;;;;;;;;;;;;17.99;75.34;99873.38;5035632;28;19959;-63
2021/09/26 13:57:53;;;;;;;;;;;;;;;18.01;75.27;99874.22;5035490;28;20296;-63
2021/09/26 14:00:40;;;;;;;;;;;;;;;18.02;75.08;99870.69;5035724;28;19927;-62
2021/09/26 14:03:30;;;;;;;;;;;;;;;18.05;75.19;99877.63;5034464;28;19927;-61
2021/09/26 14:06:14;;;;;;;;;;;;;;;18.05;75.23;99869.78;5034130;28;20288;-62
2021/09/26 14:09:01;;;;;;;;;;;;;;;18.06;75.16;99872.34;5035168;28;19928;-61
2021/09/26 14:11:45;;;;;;;;;;;;;;;18.07;75.21;99875.84;5034294;28;20300;-62
2021/09/26 14:14:31;;;;;;;;;;;;;;;18.07;75.07;99875.84;5034954;28;19928;-63
2021/09/26 14:17:16;;;;;;;;;;;;;;;18.08;75.02;99875.81;5033827;28;19929;-62
2021/09/26 14:20:01;;;;;;;;;;;;;;;18.09;75.24;99871.47;5035235;28;20376;-62
2021/09/26 14:22:48;;;;;;;;;;;;;;;18.08;75.19;99864.47;5035309;28;19943;-62
2021/09/26 14:25:33;;;;;;;;;;;;;;;18.08;75.16;99867.94;5035259;28;19932;-63